createdAt,value
2018-09-17T12:39:51.790Z,934.37
2018-09-17T12:40:51.463Z,934.46
2018-09-17T12:41:51.465Z,934.54
2018-09-17T12:42:51.468Z,934.61
2018-09-17T12:43:51.489Z,934.70
2018-09-17T12:44:51.894Z,934.77
2018-09-17T12:45:51.534Z,934.84
2018-09-17T12:46:51.523Z,934.87
2018-09-17T12:47:51.538Z,934.96
2018-09-17T12:48:51.552Z,935.02
2018-09-17T12:49:51.819Z,935.10
2018-09-17T12:50:51.602Z,935.06
2018-09-17T12:51:51.594Z,934.85
2018-09-17T12:52:51.595Z,934.72
2018-09-17T12:53:51.619Z,934.59
2018-09-17T12:54:51.729Z,934.52
2018-09-17T12:55:51.638Z,934.46
2018-09-17T12:56:51.653Z,934.44
2018-09-17T12:57:51.653Z,934.45
2018-09-17T12:58:51.678Z,934.42
2018-09-17T12:59:51.843Z,934.48
2018-09-17T13:00:51.702Z,934.53
2018-09-17T13:01:51.715Z,934.64
2018-09-17T13:02:51.716Z,934.65
2018-09-17T13:03:51.744Z,934.70
2018-09-17T13:04:51.997Z,934.72
2018-09-17T13:05:51.755Z,934.74
2018-09-17T13:06:51.766Z,934.72
2018-09-17T13:07:51.783Z,934.80
2018-09-17T13:08:51.810Z,934.83
2018-09-17T13:09:52.059Z,934.92
2018-09-17T13:10:51.816Z,934.93
2018-09-17T13:11:51.836Z,934.99
2018-09-17T13:12:51.848Z,935.01
2018-09-17T13:13:51.859Z,934.97
2018-09-17T13:14:52.068Z,934.98
2018-09-17T13:15:51.906Z,935.01
2018-09-17T13:16:51.903Z,935.01
2018-09-17T13:17:51.904Z,935.00
2018-09-17T13:18:51.914Z,935.00
2018-09-17T13:19:52.095Z,935.02
2018-09-17T13:20:51.938Z,934.99
2018-09-17T13:21:51.950Z,935.02
2018-09-17T13:22:51.976Z,934.94
2018-09-17T13:23:51.981Z,934.94
2018-09-17T13:24:52.123Z,934.91
2018-09-17T13:25:52.011Z,934.87
2018-09-17T13:26:52.026Z,934.87
2018-09-17T13:27:52.037Z,934.90
2018-09-17T13:28:52.039Z,934.91
2018-09-17T13:29:52.311Z,934.91
2018-09-17T13:30:52.078Z,934.89
2018-09-17T13:31:52.182Z,934.85
2018-09-17T13:32:52.121Z,934.82
2018-09-17T13:33:52.111Z,934.81
2018-09-17T13:34:52.119Z,934.80
2018-09-17T13:35:52.228Z,934.80
2018-09-17T13:36:52.142Z,934.80
2018-09-17T13:37:52.170Z,934.72
2018-09-17T13:38:52.167Z,934.73
2018-09-17T13:39:52.178Z,934.71
2018-09-17T13:40:52.204Z,934.74
2018-09-17T13:41:52.307Z,934.68
2018-09-17T13:42:52.235Z,934.68
2018-09-17T13:43:52.225Z,934.61
2018-09-17T13:44:52.274Z,934.57
2018-09-17T13:45:52.259Z,934.55
2018-09-17T13:46:52.388Z,934.49
2018-09-17T13:47:52.274Z,934.49
2018-09-17T13:48:52.301Z,934.46
2018-09-17T13:49:52.311Z,934.41
2018-09-17T13:50:52.338Z,934.36
2018-09-17T13:51:52.434Z,934.36
2018-09-17T13:52:52.351Z,934.36
2018-09-17T13:53:52.371Z,934.36
2018-09-17T13:54:52.378Z,934.35
2018-09-17T13:55:52.400Z,934.34
2018-09-17T13:56:52.502Z,934.27
2018-09-17T13:57:52.421Z,934.22
2018-09-17T13:58:52.421Z,934.22
2018-09-17T13:59:52.440Z,934.19
2018-09-17T14:00:52.454Z,934.18
2018-09-17T14:01:52.753Z,934.17
2018-09-17T14:02:52.484Z,934.17
2018-09-17T14:03:52.497Z,934.11
2018-09-17T14:04:52.507Z,934.09
2018-09-17T14:05:52.520Z,934.09
2018-09-17T14:06:52.620Z,933.99
2018-09-17T14:07:52.537Z,934.04
2018-09-17T14:08:52.580Z,934.04
2018-09-17T14:09:52.607Z,934.02
2018-09-17T14:10:52.579Z,934.02
2018-09-17T14:11:52.690Z,934.01
2018-09-17T14:12:52.608Z,934.00
2018-09-17T14:13:52.617Z,933.99
2018-09-17T14:14:52.651Z,934.04
2018-09-17T14:15:52.633Z,933.98
2018-09-17T14:16:52.760Z,934.01
2018-09-17T14:17:52.662Z,933.98
2018-09-17T14:18:52.666Z,933.94
2018-09-17T14:19:52.682Z,933.89
2018-09-17T14:20:52.697Z,933.82
2018-09-17T14:21:52.805Z,933.80
2018-09-17T14:22:52.754Z,933.70
2018-09-17T14:23:52.771Z,933.64
2018-09-17T14:24:52.745Z,933.60
2018-09-17T14:25:52.785Z,933.47
2018-09-17T14:26:52.877Z,933.40
2018-09-17T14:27:52.795Z,933.27
2018-09-17T14:28:52.827Z,933.22
2018-09-17T14:29:52.817Z,933.13
2018-09-17T14:30:52.847Z,933.05
2018-09-17T14:31:52.932Z,932.89
2018-09-17T14:32:52.919Z,932.79
2018-09-17T14:33:52.883Z,932.71
2018-09-17T14:34:52.872Z,932.62
2018-09-17T14:35:52.885Z,932.54
2018-09-17T14:36:53.007Z,932.36
2018-09-17T14:37:52.935Z,932.24
2018-09-17T14:38:52.933Z,932.02
2018-09-17T14:39:52.943Z,931.99
2018-09-17T14:40:52.985Z,931.92
2018-09-17T14:41:53.075Z,931.96
2018-09-17T14:42:52.977Z,931.88
2018-09-17T14:43:53.081Z,931.86
2018-09-17T14:44:53.006Z,931.88
2018-09-17T14:45:53.012Z,931.93
2018-09-17T14:46:53.172Z,931.99
2018-09-17T14:47:53.039Z,931.97
2018-09-17T14:48:53.069Z,932.03
2018-09-17T14:49:53.083Z,932.08
2018-09-17T14:50:53.117Z,932.16
2018-09-17T14:51:53.238Z,932.28
2018-09-17T14:52:53.111Z,932.35
2018-09-17T14:53:53.200Z,932.52
2018-09-17T14:54:53.141Z,932.60
2018-09-17T14:55:53.143Z,932.64
2018-09-17T14:56:53.258Z,932.74
2018-09-17T14:57:53.185Z,932.84
2018-09-17T14:58:53.211Z,932.92
2018-09-17T14:59:53.193Z,932.91
2018-09-17T15:00:53.216Z,933.01
2018-09-17T15:01:53.227Z,933.10
2018-09-17T15:02:53.344Z,933.13
2018-09-17T15:03:53.246Z,933.11
2018-09-17T15:04:53.256Z,933.21
2018-09-17T15:05:53.288Z,933.16
2018-09-17T15:06:53.300Z,933.20
2018-09-17T15:07:53.437Z,933.20
2018-09-17T15:08:53.464Z,933.21
2018-09-17T15:09:53.322Z,933.20
2018-09-17T15:10:53.368Z,933.23
2018-09-17T15:11:53.377Z,933.23
2018-09-17T15:12:53.470Z,933.14
2018-09-17T15:13:53.387Z,933.11
2018-09-17T15:14:53.416Z,933.09
2018-09-17T15:15:53.426Z,933.05
2018-09-17T15:16:53.442Z,932.97
2018-09-17T15:17:53.556Z,932.90
2018-09-17T15:18:53.456Z,932.82
2018-09-17T15:19:53.525Z,932.76
2018-09-17T15:20:53.508Z,932.76
2018-09-17T15:21:53.489Z,932.71
2018-09-17T15:22:53.599Z,932.62
2018-09-17T15:23:53.582Z,932.64
2018-09-17T15:24:53.517Z,932.63
2018-09-17T15:25:53.541Z,932.62
2018-09-17T15:26:53.553Z,932.56
2018-09-17T15:27:53.707Z,932.56
2018-09-17T15:28:53.583Z,932.55
2018-09-17T15:29:53.582Z,932.43
2018-09-17T15:30:53.595Z,932.37
2018-09-17T15:31:53.603Z,932.30
2018-09-17T15:32:53.891Z,932.22
2018-09-17T15:33:53.638Z,932.10
2018-09-17T15:34:53.653Z,931.93
2018-09-17T15:35:53.650Z,931.91
2018-09-17T15:36:53.697Z,931.83
2018-09-17T15:37:53.845Z,931.76
2018-09-17T15:38:53.688Z,931.75
2018-09-17T15:39:53.704Z,931.71
2018-09-17T15:40:53.857Z,931.73
2018-09-17T15:41:53.736Z,931.76
2018-09-17T15:42:53.921Z,931.83
2018-09-17T15:43:53.754Z,931.94
2018-09-17T15:44:53.773Z,932.02
2018-09-17T15:45:53.788Z,932.09
2018-09-17T15:46:53.803Z,932.13
2018-09-17T15:47:53.902Z,932.19
2018-09-17T15:48:53.825Z,932.31
2018-09-17T15:49:53.903Z,932.39
2018-09-17T15:50:53.857Z,932.40
2018-09-17T15:51:53.911Z,932.37
2018-09-17T15:52:53.978Z,932.34
2018-09-17T15:53:53.872Z,932.29
2018-09-17T15:54:53.889Z,932.20
2018-09-17T15:55:53.972Z,932.08
2018-09-17T15:56:53.927Z,931.97
2018-09-17T15:57:54.125Z,931.86
2018-09-17T15:58:53.940Z,931.76
2018-09-17T15:59:53.959Z,931.61
2018-09-17T16:00:53.963Z,931.52
2018-09-17T16:01:53.982Z,931.43
2018-09-17T16:02:54.175Z,931.32
2018-09-17T16:03:54.007Z,931.17
2018-09-17T16:04:54.015Z,930.95
2018-09-17T16:05:54.027Z,930.78
2018-09-17T16:06:54.115Z,930.51
2018-09-17T16:07:54.215Z,930.31
2018-09-17T16:08:54.071Z,930.16
2018-09-17T16:09:54.080Z,929.96
2018-09-17T16:10:54.095Z,929.84
2018-09-17T16:11:54.105Z,929.86
2018-09-17T16:12:54.131Z,929.96
2018-09-17T16:13:54.319Z,929.99
2018-09-17T16:14:54.145Z,930.02
2018-09-17T16:15:54.167Z,930.00
2018-09-17T16:16:54.164Z,930.07
2018-09-17T16:17:54.191Z,929.82
2018-09-17T16:18:54.210Z,929.61
2018-09-17T16:19:54.331Z,929.39
2018-09-17T16:20:54.232Z,929.33
2018-09-17T16:21:54.237Z,929.39
2018-09-17T16:22:54.258Z,929.49
2018-09-17T16:23:54.260Z,929.69
2018-09-17T16:24:54.386Z,929.86
2018-09-17T16:25:54.282Z,929.89
2018-09-17T16:26:54.311Z,929.92
2018-09-17T16:27:54.316Z,929.85
2018-09-17T16:28:54.335Z,929.68
2018-09-17T16:29:54.449Z,929.70
2018-09-17T16:30:54.342Z,929.70
2018-09-17T16:31:54.377Z,929.68
2018-09-17T16:32:54.381Z,929.65
2018-09-17T16:33:54.400Z,929.72
2018-09-17T16:34:54.550Z,929.89
2018-09-17T16:35:54.416Z,930.06
2018-09-17T16:36:54.427Z,930.36
2018-09-17T16:37:54.445Z,930.71
2018-09-17T16:38:54.456Z,930.94
2018-09-17T16:39:54.570Z,931.13
2018-09-17T16:40:54.574Z,931.22
2018-09-17T16:41:54.493Z,931.22
2018-09-17T16:42:54.512Z,931.26
2018-09-17T16:43:54.525Z,931.30
2018-09-17T16:44:54.685Z,931.17
2018-09-17T16:45:54.561Z,931.14
2018-09-17T16:46:54.572Z,931.01
2018-09-17T16:47:54.629Z,930.98
2018-09-17T16:48:54.593Z,930.98
2018-09-17T16:49:54.764Z,931.06
2018-09-17T16:50:54.630Z,931.10
2018-09-17T16:51:54.647Z,931.22
2018-09-17T16:52:54.728Z,931.36
2018-09-17T16:53:54.671Z,931.42
2018-09-17T16:54:54.940Z,931.47
2018-09-17T16:55:54.703Z,931.49
2018-09-17T16:56:54.713Z,931.52
2018-09-17T16:57:54.719Z,931.40
2018-09-17T16:58:54.814Z,931.36
2018-09-17T16:59:55.011Z,931.34
2018-09-17T17:00:54.764Z,931.35
2018-09-17T17:01:54.788Z,931.45
2018-09-17T17:02:55.000Z,931.40
2018-09-17T17:03:54.818Z,931.44
2018-09-17T17:04:55.154Z,931.42
2018-09-17T17:05:54.886Z,931.46
2018-09-17T17:06:54.852Z,931.46
2018-09-17T17:07:54.877Z,931.41
2018-09-17T17:08:54.883Z,931.36
2018-09-17T17:09:55.050Z,931.37
2018-09-17T17:10:55.025Z,931.37
2018-09-17T17:11:55.013Z,931.42
2018-09-17T17:12:54.939Z,931.36
2018-09-17T17:13:54.961Z,931.41
2018-09-17T17:14:55.425Z,931.39
2018-09-17T17:15:55.034Z,931.46
2018-09-17T17:16:54.998Z,931.44
2018-09-17T17:17:55.020Z,931.50
2018-09-17T17:18:55.123Z,931.52
2018-09-17T17:19:55.043Z,931.51
2018-09-17T17:20:55.184Z,931.44
2018-09-17T17:21:55.152Z,931.40
2018-09-17T17:22:55.081Z,931.37
2018-09-17T17:23:55.100Z,931.32
2018-09-17T17:24:55.121Z,931.30
2018-09-17T17:25:55.227Z,931.30
2018-09-17T17:26:55.142Z,931.21
2018-09-17T17:27:55.293Z,931.18
2018-09-17T17:28:55.177Z,931.16
2018-09-17T17:29:55.206Z,931.16
2018-09-17T17:30:55.311Z,931.19
2018-09-17T17:31:55.228Z,931.18
2018-09-17T17:32:55.223Z,931.28
2018-09-17T17:33:55.359Z,931.35
2018-09-17T17:34:55.259Z,931.36
2018-09-17T17:35:55.376Z,931.35
2018-09-17T17:36:55.300Z,931.34
2018-09-17T17:37:55.317Z,931.35
2018-09-17T17:38:55.324Z,931.28
2018-09-17T17:39:55.380Z,931.16
2018-09-17T17:40:55.609Z,931.16
2018-09-17T17:41:55.363Z,931.08
2018-09-17T17:42:55.376Z,931.10
2018-09-17T17:43:55.409Z,931.14
2018-09-17T17:44:55.410Z,931.11
2018-09-17T17:45:55.715Z,931.15
2018-09-17T17:46:55.457Z,931.15
2018-09-17T17:47:55.463Z,931.15
2018-09-17T17:48:55.474Z,931.06
2018-09-17T17:49:55.482Z,931.03
2018-09-17T17:50:55.609Z,931.00
2018-09-17T17:51:55.628Z,931.03
2018-09-17T17:52:55.539Z,931.04
2018-09-17T17:53:55.566Z,931.00
2018-09-17T17:54:55.586Z,930.96
2018-09-17T17:55:55.838Z,930.93
2018-09-17T17:56:55.609Z,930.84
2018-09-17T17:57:55.661Z,930.86
2018-09-17T17:58:55.635Z,930.85
2018-09-17T17:59:55.647Z,930.85
2018-09-17T18:00:55.855Z,930.85
2018-09-17T18:01:55.682Z,930.76
2018-09-17T18:02:55.707Z,930.77
2018-09-17T18:03:55.760Z,930.76
2018-09-17T18:04:55.728Z,930.72
2018-09-17T18:05:55.853Z,930.74
2018-09-17T18:06:55.763Z,930.70
2018-09-17T18:07:55.790Z,930.67
2018-09-17T18:08:55.802Z,930.68
2018-09-17T18:09:55.816Z,930.63
2018-09-17T18:10:55.928Z,930.63
2018-09-17T18:11:55.855Z,930.63
2018-09-17T18:12:55.926Z,930.58
2018-09-17T18:13:55.875Z,930.60
2018-09-17T18:14:55.956Z,930.56
2018-09-17T18:15:56.015Z,930.55
2018-09-17T18:16:55.927Z,930.53
2018-09-17T18:17:55.949Z,930.51
2018-09-17T18:18:55.958Z,930.49
2018-09-17T18:19:55.982Z,930.46
2018-09-17T18:20:56.241Z,930.45
2018-09-17T18:21:56.016Z,930.44
2018-09-17T18:22:56.017Z,930.43
2018-09-17T18:23:56.032Z,930.50
2018-09-17T18:24:56.047Z,930.49
2018-09-17T18:25:56.322Z,930.45
2018-09-17T18:26:56.148Z,930.53
2018-09-17T18:27:56.093Z,930.51
2018-09-17T18:28:56.122Z,930.52
2018-09-17T18:29:56.138Z,930.50
2018-09-17T18:30:56.139Z,930.51
2018-09-17T18:31:56.270Z,930.50
2018-09-17T18:32:56.279Z,930.58
2018-09-17T18:33:56.196Z,930.60
2018-09-17T18:34:56.207Z,930.57
2018-09-17T18:35:56.230Z,930.61
2018-09-17T18:36:56.350Z,930.59
2018-09-17T18:37:56.259Z,930.57
2018-09-17T18:38:56.375Z,930.57
2018-09-17T18:39:56.304Z,930.60
2018-09-17T18:40:56.314Z,930.51
2018-09-17T18:41:56.582Z,930.55
2018-09-17T18:42:56.412Z,930.51
2018-09-17T18:43:56.352Z,930.42
2018-09-17T18:44:56.428Z,930.46
2018-09-17T18:45:56.378Z,930.46
2018-09-17T18:46:56.552Z,930.47
2018-09-17T18:47:56.516Z,930.46
2018-09-17T18:48:56.439Z,930.48
2018-09-17T18:49:56.441Z,930.51
2018-09-17T18:50:56.550Z,930.52
2018-09-17T18:51:56.622Z,930.50
2018-09-17T18:52:56.491Z,930.51
2018-09-17T18:53:56.579Z,930.49
2018-09-17T18:54:56.523Z,930.50
2018-09-17T18:55:56.534Z,930.55
2018-09-17T18:56:56.935Z,930.56
2018-09-17T18:57:56.576Z,930.58
2018-09-17T18:58:56.585Z,930.54
2018-09-17T18:59:56.714Z,930.52
2018-09-17T19:00:56.627Z,930.50
2018-09-17T19:01:56.734Z,930.50
2018-09-17T19:02:56.856Z,930.52
2018-09-17T19:03:56.715Z,930.54
2018-09-17T19:04:56.692Z,930.57
2018-09-17T19:05:56.737Z,930.56
2018-09-17T19:06:56.828Z,930.55
2018-09-17T19:07:56.745Z,930.52
2018-09-17T19:08:56.899Z,930.55
2018-09-17T19:09:56.762Z,930.54
2018-09-17T19:10:56.782Z,930.56
2018-09-17T19:11:56.989Z,930.56
2018-09-17T19:12:56.801Z,930.57
2018-09-17T19:13:56.820Z,930.50
2018-09-17T19:14:56.907Z,930.53
2018-09-17T19:15:56.858Z,930.49
2018-09-17T19:16:57.040Z,930.48
2018-09-17T19:17:56.952Z,930.50
2018-09-17T19:18:56.920Z,930.48
2018-09-17T19:19:57.015Z,930.49
2018-09-17T19:20:57.383Z,930.48
2018-09-17T19:21:57.235Z,930.45
2018-09-17T19:22:56.983Z,930.48
2018-09-17T19:23:57.054Z,930.51
2018-09-17T19:24:57.010Z,930.42
2018-09-17T19:25:57.666Z,930.42
2018-09-17T19:26:57.183Z,930.46
2018-09-17T19:27:57.139Z,930.40
2018-09-17T19:28:57.122Z,930.45
2018-09-17T19:30:10.390Z,930.49
2018-09-17T19:30:57.101Z,930.49
2018-09-17T19:31:57.229Z,930.54
2018-09-17T19:32:57.233Z,930.55
2018-09-17T19:33:57.252Z,930.56
2018-09-17T19:34:57.171Z,930.61
2018-09-17T19:35:57.287Z,930.61
2018-09-17T19:36:57.200Z,930.63
2018-09-17T19:37:57.422Z,930.66
2018-09-17T19:38:57.229Z,930.69
2018-09-17T19:39:57.264Z,930.67
2018-09-17T19:40:57.251Z,930.68
2018-09-17T19:41:58.249Z,930.68
2018-09-17T19:42:57.380Z,930.65
2018-09-17T19:43:57.434Z,930.65
2018-09-17T19:44:57.315Z,930.67
2018-09-17T19:45:57.388Z,930.68
2018-09-17T19:46:57.344Z,930.65
2018-09-17T19:47:57.541Z,930.67
2018-09-17T19:48:57.387Z,930.65
2018-09-17T19:49:57.450Z,930.69
2018-09-17T19:50:57.408Z,930.65
2018-09-17T19:51:57.423Z,930.72
2018-09-17T19:52:57.687Z,930.72
2018-09-17T19:53:57.588Z,930.70
2018-09-17T19:54:57.483Z,930.69
2018-09-17T19:55:57.594Z,930.72
2018-09-17T19:56:57.497Z,930.74
2018-09-17T19:57:57.626Z,930.73
2018-09-17T19:58:57.539Z,930.78
2018-09-17T19:59:57.544Z,930.74
2018-09-17T20:00:57.607Z,930.78
2018-09-17T20:01:57.610Z,930.86
2018-09-17T20:02:57.840Z,930.83
2018-09-17T20:03:57.617Z,930.85
2018-09-17T20:04:57.621Z,930.86
2018-09-17T20:05:57.655Z,930.91
2018-09-17T20:06:58.242Z,930.92
2018-09-17T20:07:57.793Z,930.94
2018-09-17T20:08:57.700Z,930.84
2018-09-17T20:09:57.730Z,930.87
2018-09-17T20:10:58.942Z,930.94
2018-09-17T20:11:57.736Z,930.87
2018-09-17T20:12:58.105Z,930.97
2018-09-17T20:13:57.774Z,930.93
2018-09-17T20:14:57.773Z,930.93
2018-09-17T20:15:57.793Z,930.96
2018-09-17T20:16:57.804Z,930.97
2018-09-17T20:17:57.931Z,931.01
2018-09-17T20:18:57.847Z,930.97
2018-09-17T20:19:57.856Z,931.01
2018-09-17T20:20:58.412Z,930.98
2018-09-17T20:21:57.888Z,931.00
2018-09-17T20:22:58.640Z,930.99
2018-09-17T20:23:58.452Z,930.98
2018-09-17T20:24:57.921Z,930.90
2018-09-17T20:25:57.955Z,930.93
2018-09-17T20:26:57.961Z,930.94
2018-09-17T20:27:58.065Z,930.94
2018-09-17T20:28:57.992Z,930.93
2018-09-17T20:29:58.005Z,930.98
2018-09-17T20:30:58.008Z,930.99
2018-09-17T20:31:58.045Z,930.97
2018-09-17T20:32:58.151Z,931.01
2018-09-17T20:33:58.059Z,931.05
2018-09-17T20:34:58.073Z,931.01
2018-09-17T20:35:58.080Z,931.00
2018-09-17T20:36:58.648Z,931.02
2018-09-17T20:37:58.128Z,931.04
2018-09-17T20:38:58.242Z,931.06
2018-09-17T20:39:58.143Z,931.06
2018-09-17T20:40:58.165Z,931.02
2018-09-17T20:41:58.186Z,931.02
2018-09-17T20:42:58.182Z,931.04
2018-09-17T20:43:58.305Z,931.02
2018-09-17T20:44:58.290Z,931.04
2018-09-17T20:45:58.247Z,931.01
2018-09-17T20:46:58.252Z,930.98
2018-09-17T20:47:58.273Z,930.96
2018-09-17T20:48:58.483Z,931.00
2018-09-17T20:49:58.416Z,931.04
2018-09-17T20:50:58.308Z,931.09
2018-09-17T20:51:58.335Z,931.06
2018-09-17T20:52:58.352Z,931.08
2018-09-17T20:53:58.497Z,931.10
2018-09-17T20:54:58.528Z,931.08
2018-09-17T20:55:58.411Z,931.09
2018-09-17T20:56:58.413Z,931.08
2018-09-17T20:57:58.404Z,931.13
2018-09-17T20:58:58.537Z,931.19
2018-09-17T20:59:58.440Z,931.19
2018-09-17T21:00:58.587Z,931.16
2018-09-17T21:01:58.483Z,931.14
2018-09-17T21:02:58.497Z,931.11
2018-09-17T21:03:58.613Z,931.14
2018-09-17T21:04:58.529Z,931.16
2018-09-17T21:05:58.530Z,931.18
2018-09-17T21:06:58.626Z,931.20
2018-09-17T21:07:58.572Z,931.22
2018-09-17T21:08:58.770Z,931.19
2018-09-17T21:09:58.588Z,931.16
2018-09-17T21:10:58.604Z,931.21
2018-09-17T21:11:58.625Z,931.22
2018-09-17T21:12:58.715Z,931.20
2018-09-17T21:13:58.759Z,931.23
2018-09-17T21:14:58.672Z,931.23
2018-09-17T21:15:58.739Z,931.23
2018-09-17T21:16:58.690Z,931.26
2018-09-17T21:17:58.719Z,931.26
2018-09-17T21:18:58.967Z,931.24
2018-09-17T21:19:58.736Z,931.26
2018-09-17T21:20:58.763Z,931.21
2018-09-17T21:21:58.795Z,931.23
2018-09-17T21:22:58.787Z,931.26
2018-09-17T21:23:58.894Z,931.27
2018-09-17T21:24:58.893Z,931.26
2018-09-17T21:25:58.829Z,931.27
2018-09-17T21:26:58.852Z,931.24
2018-09-17T21:27:58.872Z,931.24
2018-09-17T21:28:59.024Z,931.22
2018-09-17T21:29:58.876Z,931.26
2018-09-17T21:30:59.009Z,931.29
2018-09-17T21:31:58.923Z,931.26
2018-09-17T21:32:58.934Z,931.29
2018-09-17T21:33:59.145Z,931.30
2018-09-17T21:34:58.990Z,931.32
2018-09-17T21:35:58.979Z,931.36
2018-09-17T21:36:59.120Z,931.39
2018-09-17T21:37:59.008Z,931.40
2018-09-17T21:38:59.124Z,931.42
2018-09-17T21:39:59.027Z,931.35
2018-09-17T21:40:59.044Z,931.41
2018-09-17T21:41:59.056Z,931.42
2018-09-17T21:42:59.099Z,931.50
2018-09-17T21:43:59.124Z,931.47
2018-09-17T21:44:59.205Z,931.45
2018-09-17T21:45:59.129Z,931.47
2018-09-17T21:46:59.133Z,931.46
2018-09-17T21:47:59.152Z,931.52
2018-09-17T21:48:59.158Z,931.47
2018-09-17T21:49:59.422Z,931.48
2018-09-17T21:50:59.198Z,931.45
2018-09-17T21:51:59.203Z,931.44
2018-09-17T21:52:59.210Z,931.48
2018-09-17T21:53:59.237Z,931.48
2018-09-17T21:54:59.501Z,931.42
2018-09-17T21:55:59.270Z,931.45
2018-09-17T21:56:59.280Z,931.49
2018-09-17T21:57:59.300Z,931.54
2018-09-17T21:58:59.317Z,931.52
2018-09-17T21:59:59.424Z,931.56
2018-09-17T22:00:59.371Z,931.49
2018-09-17T22:01:59.358Z,931.53
2018-09-17T22:02:59.390Z,931.55
2018-09-17T22:03:59.389Z,931.55
2018-09-17T22:04:59.489Z,931.52
2018-09-17T22:05:59.418Z,931.57
2018-09-17T22:06:59.430Z,931.57
2018-09-17T22:07:59.444Z,931.52
2018-09-17T22:08:59.453Z,931.59
2018-09-17T22:09:59.565Z,931.57
2018-09-17T22:10:59.492Z,931.54
2018-09-17T22:11:59.493Z,931.56
2018-09-17T22:12:59.521Z,931.52
2018-09-17T22:13:59.534Z,931.52
2018-09-17T22:14:59.651Z,931.52
2018-09-17T22:15:59.562Z,931.52
2018-09-17T22:16:59.582Z,931.49
2018-09-17T22:17:59.595Z,931.57
2018-09-17T22:18:59.608Z,931.52
2018-09-17T22:19:59.724Z,931.58
2018-09-17T22:20:59.625Z,931.57
2018-09-17T22:21:59.648Z,931.61
2018-09-17T22:22:59.667Z,931.56
2018-09-17T22:23:59.683Z,931.59
2018-09-17T22:24:59.843Z,931.61
2018-09-17T22:25:59.707Z,931.61
2018-09-17T22:26:59.711Z,931.61
2018-09-17T22:27:59.728Z,931.58
2018-09-17T22:28:59.788Z,931.59
2018-09-17T22:30:00.004Z,931.55
2018-09-17T22:30:59.770Z,931.56
2018-09-17T22:31:59.783Z,931.56
2018-09-17T22:32:59.809Z,931.57
2018-09-17T22:33:59.866Z,931.57
2018-09-17T22:35:00.000Z,931.56
2018-09-17T22:35:59.845Z,931.59
2018-09-17T22:36:59.862Z,931.64
2018-09-17T22:37:59.883Z,931.64
2018-09-17T22:38:59.897Z,931.64
2018-09-17T22:40:00.003Z,931.60
2018-09-17T22:40:59.915Z,931.64
2018-09-17T22:41:59.928Z,931.63
2018-09-17T22:42:59.965Z,931.63
2018-09-17T22:43:59.966Z,931.65
2018-09-17T22:45:00.135Z,931.65
2018-09-17T22:45:59.999Z,931.70
2018-09-17T22:47:00.004Z,931.70
2018-09-17T22:48:00.020Z,931.72
2018-09-17T22:49:00.047Z,931.70
2018-09-17T22:50:00.045Z,931.76
2018-09-17T22:51:00.174Z,931.77
2018-09-17T22:52:00.082Z,931.75
2018-09-17T22:53:00.100Z,931.79
2018-09-17T22:54:00.160Z,931.78
2018-09-17T22:55:00.121Z,931.81
2018-09-17T22:56:00.296Z,931.78
2018-09-17T22:57:00.158Z,931.78
2018-09-17T22:58:00.177Z,931.78
2018-09-17T22:59:00.177Z,931.78
2018-09-17T23:00:00.197Z,931.78
2018-09-17T23:01:00.309Z,931.70
2018-09-17T23:02:00.232Z,931.71
2018-09-17T23:03:00.241Z,931.70
2018-09-17T23:04:00.264Z,931.64
2018-09-17T23:05:00.274Z,931.63
2018-09-17T23:06:00.377Z,931.61
2018-09-17T23:07:00.304Z,931.58
2018-09-17T23:08:00.310Z,931.61
2018-09-17T23:09:00.317Z,931.57
2018-09-17T23:10:00.345Z,931.51
2018-09-17T23:11:00.516Z,931.53
2018-09-17T23:12:00.375Z,931.57
2018-09-17T23:13:00.395Z,931.62
2018-09-17T23:14:00.393Z,931.66
2018-09-17T23:15:00.414Z,931.70
2018-09-17T23:16:00.527Z,931.71
2018-09-17T23:17:00.437Z,931.74
2018-09-17T23:18:00.466Z,931.72
2018-09-17T23:19:00.465Z,931.70
2018-09-17T23:20:00.482Z,931.70
2018-09-17T23:21:00.612Z,931.65
2018-09-17T23:22:00.521Z,931.64
2018-09-17T23:23:00.537Z,931.62
2018-09-17T23:24:00.544Z,931.58
2018-09-17T23:25:00.552Z,931.56
2018-09-17T23:26:00.669Z,931.56
2018-09-17T23:27:00.593Z,931.60
2018-09-17T23:28:00.603Z,931.61
2018-09-17T23:29:00.621Z,931.56
2018-09-17T23:30:00.624Z,931.58
2018-09-17T23:31:00.805Z,931.48
2018-09-17T23:32:00.672Z,931.51
2018-09-17T23:33:00.686Z,931.54
2018-09-17T23:34:00.700Z,931.55
2018-09-17T23:35:00.715Z,931.57
2018-09-17T23:36:00.817Z,931.55
2018-09-17T23:37:00.742Z,931.64
2018-09-17T23:38:00.747Z,931.68
2018-09-17T23:39:00.759Z,931.73
2018-09-17T23:40:00.789Z,931.78
2018-09-17T23:41:01.053Z,931.79
2018-09-17T23:42:00.815Z,931.83
2018-09-17T23:43:00.814Z,931.84
2018-09-17T23:44:00.846Z,931.87
2018-09-17T23:45:00.848Z,931.90
2018-09-17T23:46:00.971Z,931.88
2018-09-17T23:47:00.890Z,931.85
2018-09-17T23:48:00.890Z,931.82
2018-09-17T23:49:00.915Z,931.83
2018-09-17T23:50:00.924Z,931.81
2018-09-17T23:51:01.027Z,931.79
2018-09-17T23:52:00.951Z,931.84
2018-09-17T23:53:00.977Z,931.87
2018-09-17T23:54:00.991Z,931.87
2018-09-17T23:55:00.989Z,931.92
2018-09-17T23:56:01.121Z,931.94
2018-09-17T23:57:01.028Z,931.98
2018-09-17T23:58:01.039Z,931.98
2018-09-17T23:59:01.057Z,931.97
